Time,TemperatureF,DewpointF,PressureIn,WindDirection,WindDirectionDegrees,WindSpeedMPH,WindSpeedGustMPH,Humidity,HourlyPrecipIn,Conditions,Clouds,dailyrainin,SoftwareType,DateUTC
2013-04-22 00:01:00,43.1,37.7,30.41,West,275,0.0,0.0,81,0.00,CLR,,0.00,WeatherDisplay:10.37,2013-04-22 04:01:00,
2013-04-22 00:06:00,43.0,37.9,30.41,West,275,0.0,1.1,82,0.00,FEW,,0.00,WeatherDisplay:10.37,2013-04-22 04:06:00,
2013-04-22 00:11:00,42.8,37.7,30.41,West,275,0.0,1.0,82,0.00,FEW,,0.00,WeatherDisplay:10.37,2013-04-22 04:11:00,
2013-04-22 00:16:00,42.7,38.2,30.41,WSW,256,0.0,0.0,84,0.00,FEW,,0.00,WeatherDisplay:10.37,2013-04-22 04:16:00,
2013-04-22 00:21:00,42.7,37.6,30.41,WSW,257,0.0,1.0,82,0.00,FEW,,0.00,WeatherDisplay:10.37,2013-04-22 04:21:00,
2013-04-22 00:26:00,42.5,37.7,30.41,WSW,256,0.1,0.0,83,0.00,FEW,,0.00,WeatherDisplay:10.37,2013-04-22 04:26:00,
2013-04-22 00:31:00,42.5,37.7,30.41,WSW,256,0.0,1.1,83,0.00,FEW,,0.00,WeatherDisplay:10.37,2013-04-22 04:31:00,
2013-04-22 00:36:00,42.5,38.0,30.40,WSW,256,0.0,0.0,84,0.00,FEW,,0.00,WeatherDisplay:10.37,2013-04-22 04:36:00,
2013-04-22 00:41:00,42.3,37.8,30.40,WSW,256,0.0,0.0,84,0.00,FEW,,0.00,WeatherDisplay:10.37,2013-04-22 04:41:00,
2013-04-22 00:46:00,42.2,37.7,30.40,WSW,256,2.5,3.5,84,0.00,FEW,,0.00,WeatherDisplay:10.37,2013-04-22 04:46:00,
2013-04-22 00:51:00,42.3,37.8,30.40,WSW,256,0.0,0.0,84,0.00,FEW,,0.00,WeatherDisplay:10.37,2013-04-22 04:51:00,
2013-04-22 00:56:00,42.3,37.5,30.40,WSW,256,0.7,3.5,83,0.00,FEW,,0.00,WeatherDisplay:10.37,2013-04-22 04:56:00,
2013-04-22 01:01:00,42.4,37.6,30.40,SSW,211,0.0,0.0,83,0.00,FEW,,0.00,WeatherDisplay:10.37,2013-04-22 05:01:00,
2013-04-22 01:06:00,42.3,37.8,30.40,SSW,210,0.0,0.0,84,0.00,FEW,,0.00,WeatherDisplay:10.37,2013-04-22 05:06:00,
2013-04-22 01:12:00,42.0,37.5,30.40,SSW,210,0.0,1.1,84,0.00,FEW,,0.00,WeatherDisplay:10.37,2013-04-22 05:12:00,
2013-04-22 01:17:00,41.9,37.7,30.40,SSW,211,0.8,1.1,85,0.00,FEW,,0.00,WeatherDisplay:10.37,2013-04-22 05:17:00,
2013-04-22 01:22:00,41.8,37.6,30.40,SSW,210,0.3,2.4,85,0.00,FEW,,0.00,WeatherDisplay:10.37,2013-04-22 05:22:00,
2013-04-22 01:27:00,41.7,37.8,30.40,SSW,210,0.0,0.0,86,0.00,FEW,,0.00,WeatherDisplay:10.37,2013-04-22 05:27:00,
2013-04-22 01:32:00,41.6,37.4,30.40,SSW,211,0.1,1.1,85,0.00,FEW,,0.00,WeatherDisplay:10.37,2013-04-22 05:32:00,
2013-04-22 01:37:00,41.5,37.6,30.40,SSW,210,0.0,0.0,86,0.00,FEW,,0.00,WeatherDisplay:10.37,2013-04-22 05:37:00,
2013-04-22 01:42:00,41.5,37.0,30.40,SSW,211,0.0,0.0,84,0.00,FEW,,0.00,WeatherDisplay:10.37,2013-04-22 05:42:00,
2013-04-22 01:47:00,41.5,37.3,30.40,SSW,211,0.0,0.0,85,0.00,FEW,,0.00,WeatherDisplay:10.37,2013-04-22 05:47:00,
2013-04-22 01:52:00,41.5,37.3,30.39,SSW,211,0.0,0.0,85,0.00,FEW,,0.00,WeatherDisplay:10.37,2013-04-22 05:52:00,
2013-04-22 01:57:00,41.5,37.3,30.39,SSW,211,0.0,0.0,85,0.00,FEW,,0.00,WeatherDisplay:10.37,2013-04-22 05:57:00,
2013-04-22 02:02:00,41.5,37.3,30.39,SSW,211,0.0,1.1,85,0.00,FEW,,0.00,WeatherDisplay:10.37,2013-04-22 06:02:00,
2013-04-22 02:07:00,41.4,37.5,30.39,SSW,210,0.0,0.0,86,0.00,CLR,,0.00,WeatherDisplay:10.37,2013-04-22 06:07:00,
2013-04-22 02:12:00,41.2,37.6,30.39,SSW,211,0.0,0.0,87,0.00,CLR,,0.00,WeatherDisplay:10.37,2013-04-22 06:12:00,
2013-04-22 02:17:00,41.1,37.5,30.38,SSW,211,0.0,0.0,87,0.00,CLR,,0.00,WeatherDisplay:10.37,2013-04-22 06:17:00,
2013-04-22 02:22:00,41.0,37.4,30.38,SSW,211,0.0,0.0,87,0.00,CLR,,0.00,WeatherDisplay:10.37,2013-04-22 06:22:00,
2013-04-22 02:27:00,40.9,37.3,30.38,SSW,211,0.0,0.0,87,0.00,CLR,,0.00,WeatherDisplay:10.37,2013-04-22 06:27:00,
2013-04-22 02:32:00,41.0,37.1,30.38,SSW,210,0.1,1.2,86,0.00,CLR,,0.00,WeatherDisplay:10.37,2013-04-22 06:32:00,
2013-04-22 02:37:00,41.0,37.4,30.38,SSW,211,0.0,0.0,87,0.00,CLR,,0.00,WeatherDisplay:10.37,2013-04-22 06:37:00,
2013-04-22 02:42:00,40.9,37.0,30.38,SSW,210,0.0,1.1,86,0.00,CLR,,0.00,WeatherDisplay:10.37,2013-04-22 06:42:00,
2013-04-22 02:47:00,41.0,37.1,30.38,SSW,210,0.2,1.1,86,0.00,CLR,,0.00,WeatherDisplay:10.37,2013-04-22 06:47:00,
2013-04-22 02:52:00,40.8,36.9,30.38,SSW,211,0.0,0.0,86,0.00,CLR,,0.00,WeatherDisplay:10.37,2013-04-22 06:52:00,
2013-04-22 02:57:00,40.6,36.7,30.38,SSW,211,0.0,0.0,86,0.00,CLR,,0.00,WeatherDisplay:10.37,2013-04-22 06:57:00,
2013-04-22 03:02:00,40.4,36.8,30.38,SW,225,0.6,2.4,87,0.00,CLR,,0.00,WeatherDisplay:10.37,2013-04-22 07:02:00,
2013-04-22 03:07:00,40.4,36.5,30.37,WSW,246,0.0,0.0,86,0.00,CLR,,0.00,WeatherDisplay:10.37,2013-04-22 07:07:00,
2013-04-22 03:12:00,40.4,36.5,30.37,WSW,246,0.9,2.4,86,0.00,CLR,,0.00,WeatherDisplay:10.37,2013-04-22 07:12:00,
2013-04-22 03:17:00,40.3,36.7,30.37,WSW,245,0.0,0.0,87,0.00,CLR,,0.00,WeatherDisplay:10.37,2013-04-22 07:17:00,
2013-04-22 03:22:00,40.2,36.6,30.37,WSW,245,0.0,1.1,87,0.00,CLR,,0.00,WeatherDisplay:10.37,2013-04-22 07:22:00,
2013-04-22 03:27:00,40.1,36.8,30.37,WSW,245,0.5,2.3,88,0.00,CLR,,0.00,WeatherDisplay:10.37,2013-04-22 07:27:00,
2013-04-22 03:32:00,40.1,36.5,30.37,WSW,246,0.0,0.0,87,0.00,CLR,,0.00,WeatherDisplay:10.37,2013-04-22 07:32:00,
2013-04-22 03:37:00,40.0,36.7,30.37,WSW,246,0.3,2.3,88,0.00,CLR,,0.00,WeatherDisplay:10.37,2013-04-22 07:37:00,
2013-04-22 03:42:00,40.0,36.7,30.37,WSW,245,0.3,2.3,88,0.00,CLR,,0.00,WeatherDisplay:10.37,2013-04-22 07:42:00,
2013-04-22 03:47:00,40.0,36.7,30.37,WSW,246,0.0,0.0,88,0.00,CLR,,0.00,WeatherDisplay:10.37,2013-04-22 07:47:00,
2013-04-22 03:52:00,40.2,36.6,30.37,WSW,246,0.0,1.1,87,0.00,CLR,,0.00,WeatherDisplay:10.37,2013-04-22 07:52:00,
2013-04-22 03:57:00,40.1,36.8,30.37,WSW,246,0.0,0.0,88,0.00,CLR,,0.00,WeatherDisplay:10.37,2013-04-22 07:57:00,
2013-04-22 04:02:00,39.9,36.6,30.37,WSW,245,0.0,0.0,88,0.00,SCT,,0.00,WeatherDisplay:10.37,2013-04-22 08:02:00,
2013-04-22 04:07:00,39.9,36.6,30.36,WSW,245,0.0,0.0,88,0.00,SCT,,0.00,WeatherDisplay:10.37,2013-04-22 08:07:00,
2013-04-22 04:12:00,40.0,36.7,30.36,WSW,245,0.0,0.0,88,0.00,SCT,,0.00,WeatherDisplay:10.37,2013-04-22 08:12:00,
2013-04-22 04:17:00,40.0,36.7,30.36,WSW,246,0.0,0.0,88,0.00,SCT,,0.00,WeatherDisplay:10.37,2013-04-22 08:17:00,
2013-04-22 04:22:00,40.0,36.7,30.36,WSW,246,0.0,0.0,88,0.00,SCT,,0.00,WeatherDisplay:10.37,2013-04-22 08:22:00,
2013-04-22 04:27:00,39.9,36.9,30.36,WSW,246,0.0,1.1,89,0.00,SCT,,0.00,WeatherDisplay:10.37,2013-04-22 08:27:00,
2013-04-22 04:32:00,39.9,36.9,30.36,WSW,245,0.0,0.0,89,0.00,SCT,,0.00,WeatherDisplay:10.37,2013-04-22 08:32:00,
2013-04-22 04:37:00,39.7,36.7,30.36,WSW,246,0.0,0.0,89,0.00,SCT,,0.00,WeatherDisplay:10.37,2013-04-22 08:37:00,
2013-04-22 04:42:00,39.6,36.6,30.36,WSW,246,0.0,0.0,89,0.00,SCT,,0.00,WeatherDisplay:10.37,2013-04-22 08:42:00,
2013-04-22 04:47:00,39.5,36.5,30.36,WSW,246,0.0,0.0,89,0.00,SCT,,0.00,WeatherDisplay:10.37,2013-04-22 08:47:00,
2013-04-22 04:52:00,39.5,36.5,30.37,WSW,246,0.0,0.0,89,0.00,SCT,,0.00,WeatherDisplay:10.37,2013-04-22 08:52:00,
2013-04-22 04:57:00,39.7,37.0,30.37,WSW,246,0.0,0.0,90,0.00,SCT,,0.00,WeatherDisplay:10.37,2013-04-22 08:57:00,
2013-04-22 05:02:00,39.9,37.2,30.37,WSW,246,0.0,0.0,90,0.00,BKN,,0.00,WeatherDisplay:10.37,2013-04-22 09:02:00,
2013-04-22 05:07:00,40.1,37.4,30.37,WSW,245,0.0,0.0,90,0.00,BKN,,0.00,WeatherDisplay:10.37,2013-04-22 09:07:00,
2013-04-22 05:10:00,62.7,42.7,30.26,ENE,57,2.0,7.0,48,0.00,CLR,,0.00,WeatherDisplay:10.37,2013-04-22 09:10:00,
2013-04-22 05:13:00,40.3,37.3,30.37,WSW,246,0.0,0.0,89,0.00,BKN,,0.00,WeatherDisplay:10.37,2013-04-22 09:13:00,
2013-04-22 05:18:00,40.5,37.5,30.37,WSW,246,0.0,0.0,89,0.00,BKN,,0.00,WeatherDisplay:10.37,2013-04-22 09:18:00,
2013-04-22 05:20:00,62.9,41.8,30.26,ENE,63,7.0,15.0,46,0.00,CLR,,0.00,WeatherDisplay:10.37,2013-04-22 09:20:00,
2013-04-22 05:23:00,40.7,37.7,30.37,WSW,245,0.0,0.0,89,0.00,BKN,,0.00,WeatherDisplay:10.37,2013-04-22 09:23:00,
2013-04-22 05:28:00,40.9,37.9,30.37,WSW,245,0.0,0.0,89,0.00,BKN,,0.00,WeatherDisplay:10.37,2013-04-22 09:28:00,
2013-04-22 05:33:00,41.1,37.8,30.37,WSW,246,0.0,0.0,88,0.00,BKN,,0.00,WeatherDisplay:10.37,2013-04-22 09:33:00,
2013-04-22 05:38:00,41.2,37.9,30.37,WSW,246,0.0,0.0,88,0.00,BKN,,0.00,WeatherDisplay:10.37,2013-04-22 09:38:00,
2013-04-22 05:43:00,41.4,37.8,30.37,WSW,245,0.0,0.0,87,0.00,BKN,,0.00,WeatherDisplay:10.37,2013-04-22 09:43:00,
2013-04-22 05:48:00,41.5,38.2,30.37,WSW,246,0.0,0.0,88,0.00,BKN,,0.00,WeatherDisplay:10.37,2013-04-22 09:48:00,
2013-04-22 05:53:00,41.6,38.3,30.37,WSW,246,0.0,0.0,88,0.00,BKN,,0.00,WeatherDisplay:10.37,2013-04-22 09:53:00,
2013-04-22 05:59:00,41.7,38.1,30.37,WSW,245,0.0,0.0,87,0.00,BKN,,0.00,WeatherDisplay:10.37,2013-04-22 09:59:00,
2013-04-22 06:04:00,41.8,37.9,30.38,WSW,246,0.0,0.0,86,0.00,OVC,,0.00,WeatherDisplay:10.37,2013-04-22 10:04:00,
2013-04-22 06:09:00,42.0,37.5,30.38,NW,326,0.2,1.1,84,0.00,OVC,,0.00,WeatherDisplay:10.37,2013-04-22 10:09:00,
2013-04-22 06:14:00,42.2,37.4,30.38,NW,326,0.0,0.0,83,0.00,OVC,,0.00,WeatherDisplay:10.37,2013-04-22 10:14:00,
2013-04-22 06:19:00,42.4,37.6,30.39,NW,326,0.0,1.1,83,0.00,OVC,,0.00,WeatherDisplay:10.37,2013-04-22 10:19:00,
2013-04-22 06:24:00,42.5,37.4,30.39,North,9,0.0,0.0,82,0.00,OVC,,0.00,WeatherDisplay:10.37,2013-04-22 10:24:00,
2013-04-22 06:29:00,42.7,37.6,30.39,North,9,0.0,0.0,82,0.00,OVC,,0.00,WeatherDisplay:10.37,2013-04-22 10:29:00,
2013-04-22 06:34:00,42.8,38.3,30.39,North,9,0.0,0.0,84,0.00,OVC,,0.00,WeatherDisplay:10.37,2013-04-22 10:34:00,
2013-04-22 06:39:00,42.7,37.9,30.39,North,9,0.0,0.0,83,0.00,OVC,,0.00,WeatherDisplay:10.37,2013-04-22 10:39:00,
2013-04-22 06:44:00,42.7,38.2,30.39,North,9,0.0,0.0,84,0.00,OVC,,0.00,WeatherDisplay:10.37,2013-04-22 10:44:00,
2013-04-22 06:49:00,42.7,37.9,30.40,North,9,0.0,0.0,83,0.00,OVC,,0.00,WeatherDisplay:10.37,2013-04-22 10:49:00,
2013-04-22 06:54:00,42.7,38.2,30.40,North,9,0.0,0.0,84,0.00,OVC,,0.00,WeatherDisplay:10.37,2013-04-22 10:54:00,
2013-04-22 06:59:00,42.6,37.5,30.40,North,9,0.0,0.0,82,0.00,OVC,,0.00,WeatherDisplay:10.37,2013-04-22 10:59:00,
2013-04-22 07:04:00,42.7,38.2,30.40,North,9,0.0,0.0,84,0.00,BKN,,0.00,WeatherDisplay:10.37,2013-04-22 11:04:00,
2013-04-22 07:09:00,42.6,38.1,30.40,North,9,0.0,0.0,84,0.00,BKN,,0.00,WeatherDisplay:10.37,2013-04-22 11:09:00,
2013-04-22 07:14:00,42.6,38.1,30.40,North,9,0.0,0.0,84,0.00,BKN,,0.00,WeatherDisplay:10.37,2013-04-22 11:14:00,
2013-04-22 07:19:00,42.3,38.1,30.40,North,9,0.0,0.0,85,0.00,BKN,,0.00,WeatherDisplay:10.37,2013-04-22 11:19:00,
2013-04-22 07:24:00,42.0,37.8,30.40,North,9,0.0,0.0,85,0.00,BKN,,0.00,WeatherDisplay:10.37,2013-04-22 11:24:00,
2013-04-22 07:29:00,41.8,37.6,30.40,North,9,0.0,0.0,85,0.00,BKN,,0.00,WeatherDisplay:10.37,2013-04-22 11:29:00,
2013-04-22 07:34:00,41.8,37.6,30.41,North,9,0.0,0.0,85,0.00,BKN,,0.00,WeatherDisplay:10.37,2013-04-22 11:34:00,
2013-04-22 07:39:00,42.0,37.5,30.41,North,9,0.0,1.1,84,0.00,BKN,,0.00,WeatherDisplay:10.37,2013-04-22 11:39:00,
2013-04-22 07:44:00,42.4,37.6,30.41,North,9,0.1,1.2,83,0.00,BKN,,0.00,WeatherDisplay:10.37,2013-04-22 11:44:00,
2013-04-22 07:49:00,42.8,37.7,30.41,North,9,0.0,0.0,82,0.00,BKN,,0.00,WeatherDisplay:10.37,2013-04-22 11:49:00,
2013-04-22 07:54:00,43.2,37.8,30.41,North,9,0.4,2.3,81,0.00,BKN,,0.00,WeatherDisplay:10.37,2013-04-22 11:54:00,
2013-04-22 07:59:00,43.5,38.1,30.41,NNE,17,0.1,1.2,81,0.00,BKN,,0.00,WeatherDisplay:10.37,2013-04-22 11:59:00,
2013-04-22 08:04:00,43.8,37.7,30.40,NE,42,0.3,4.6,79,0.00,BKN,,0.00,WeatherDisplay:10.37,2013-04-22 12:04:00,
2013-04-22 08:09:00,44.0,38.5,30.40,NE,44,5.6,5.8,81,0.00,BKN,,0.00,WeatherDisplay:10.37,2013-04-22 12:09:00,
2013-04-22 08:14:00,44.0,37.9,30.40,NE,49,4.2,4.9,79,0.00,BKN,,0.00,WeatherDisplay:10.37,2013-04-22 12:14:00,
2013-04-22 08:19:00,44.1,38.3,30.41,NE,48,1.2,3.5,80,0.00,BKN,,0.00,WeatherDisplay:10.37,2013-04-22 12:19:00,
2013-04-22 08:24:00,44.2,37.8,30.41,NE,52,4.0,6.9,78,0.00,BKN,,0.00,WeatherDisplay:10.37,2013-04-22 12:24:00,
2013-04-22 08:29:00,44.3,38.2,30.41,NE,50,4.5,5.8,79,0.00,BKN,,0.00,WeatherDisplay:10.37,2013-04-22 12:29:00,
2013-04-22 08:34:00,44.6,38.5,30.41,NE,54,3.8,4.6,79,0.00,BKN,,0.00,WeatherDisplay:10.37,2013-04-22 12:34:00,
2013-04-22 08:39:00,44.8,38.4,30.41,ENE,58,3.9,6.1,78,0.00,BKN,,0.00,WeatherDisplay:10.37,2013-04-22 12:39:00,
2013-04-22 08:44:00,44.8,38.0,30.41,ENE,60,2.7,4.6,77,0.00,BKN,,0.00,WeatherDisplay:10.37,2013-04-22 12:44:00,
2013-04-22 08:49:00,44.7,37.9,30.41,NE,50,1.5,2.3,77,0.00,BKN,,0.00,WeatherDisplay:10.37,2013-04-22 12:49:00,
2013-04-22 08:54:00,44.7,37.9,30.40,NE,50,4.3,4.9,77,0.00,BKN,,0.00,WeatherDisplay:10.37,2013-04-22 12:54:00,
2013-04-22 08:59:00,44.6,37.2,30.40,NNE,19,4.4,4.6,75,0.00,BKN,,0.00,WeatherDisplay:10.37,2013-04-22 12:59:00,
2013-04-22 09:04:00,44.8,37.7,30.40,NW,314,1.8,3.7,76,0.00,BKN,,0.00,WeatherDisplay:10.37,2013-04-22 13:04:00,
2013-04-22 09:09:00,44.9,37.8,30.40,NE,50,2.4,4.6,76,0.00,BKN,,0.00,WeatherDisplay:10.37,2013-04-22 13:09:00,
2013-04-22 09:14:00,45.1,38.0,30.40,NE,42,4.8,5.8,76,0.00,BKN,,0.00,WeatherDisplay:10.37,2013-04-22 13:14:00,
2013-04-22 09:19:00,45.2,37.1,30.40,NNW,340,0.8,3.7,73,0.00,BKN,,0.00,WeatherDisplay:10.37,2013-04-22 13:19:00,
2013-04-22 09:24:00,45.2,37.4,30.40,NNW,343,0.6,2.3,74,0.00,BKN,,0.00,WeatherDisplay:10.37,2013-04-22 13:24:00,
2013-04-22 09:29:00,45.7,37.5,30.40,NNE,17,0.9,3.5,73,0.00,BKN,,0.00,WeatherDisplay:10.37,2013-04-22 13:29:00,
2013-04-22 09:34:00,45.8,37.6,30.40,ENE,63,0.7,3.7,73,0.00,BKN,,0.00,WeatherDisplay:10.37,2013-04-22 13:34:00,
2013-04-22 09:39:00,45.9,38.1,30.40,ENE,69,3.4,4.6,74,0.00,BKN,,0.00,WeatherDisplay:10.37,2013-04-22 13:39:00,
2013-04-22 09:44:00,46.2,38.4,30.40,NE,46,5.1,7.3,74,0.00,BKN,,0.00,WeatherDisplay:10.37,2013-04-22 13:44:00,
2013-04-22 09:49:00,46.5,37.6,30.40,WNW,287,0.6,1.1,71,0.00,BKN,,0.00,WeatherDisplay:10.37,2013-04-22 13:49:00,
2013-04-22 09:54:00,46.7,38.1,30.40,NE,43,0.0,2.3,72,0.00,BKN,,0.00,WeatherDisplay:10.37,2013-04-22 13:54:00,
2013-04-22 09:59:00,47.3,38.4,30.40,ENE,57,1.3,3.5,71,0.00,BKN,,0.00,WeatherDisplay:10.37,2013-04-22 13:59:00,
2013-04-22 10:04:00,47.6,37.2,30.39,NNW,333,0.2,3.5,67,0.00,BKN,,0.00,WeatherDisplay:10.37,2013-04-22 14:04:00,
2013-04-22 10:09:00,47.5,38.6,30.39,NE,35,3.6,5.8,71,0.00,BKN,,0.00,WeatherDisplay:10.37,2013-04-22 14:09:00,
2013-04-22 10:14:00,48.2,37.8,30.39,NE,43,6.1,11.5,67,0.00,BKN,,0.00,WeatherDisplay:10.37,2013-04-22 14:14:00,
2013-04-22 10:19:00,48.2,37.8,30.38,NE,34,5.1,7.3,67,0.00,BKN,,0.00,WeatherDisplay:10.37,2013-04-22 14:19:00,
2013-04-22 10:24:00,47.7,36.9,30.38,ENE,59,0.7,3.7,66,0.00,BKN,,0.00,WeatherDisplay:10.37,2013-04-22 14:24:00,
2013-04-22 10:29:00,48.3,38.2,30.38,East,83,6.9,9.2,68,0.00,BKN,,0.00,WeatherDisplay:10.37,2013-04-22 14:29:00,
2013-04-22 10:34:00,48.4,38.7,30.38,East,82,2.6,6.1,69,0.00,BKN,,0.00,WeatherDisplay:10.37,2013-04-22 14:34:00,
2013-04-22 10:39:00,49.0,38.9,30.39,ENE,65,3.5,8.1,68,0.00,BKN,,0.00,WeatherDisplay:10.37,2013-04-22 14:39:00,
2013-04-22 10:44:00,48.9,37.6,30.39,ENE,59,5.2,8.5,65,0.00,BKN,,0.00,WeatherDisplay:10.37,2013-04-22 14:44:00,
2013-04-22 10:49:00,49.7,39.6,30.38,NE,39,4.3,6.9,68,0.00,BKN,,0.00,WeatherDisplay:10.37,2013-04-22 14:49:00,
2013-04-22 10:54:00,50.4,39.9,30.38,North,355,6.6,7.3,67,0.00,BKN,,0.00,WeatherDisplay:10.37,2013-04-22 14:54:00,
2013-04-22 10:59:00,50.8,39.8,30.38,NNW,345,6.7,8.1,66,0.00,BKN,,0.00,WeatherDisplay:10.37,2013-04-22 14:59:00,
2013-04-22 11:04:00,50.7,40.5,30.37,North,355,3.1,4.9,68,0.00,CLR,,0.00,WeatherDisplay:10.37,2013-04-22 15:04:00,
2013-04-22 11:09:00,50.8,37.8,30.38,North,355,0.9,4.6,61,0.00,CLR,,0.00,WeatherDisplay:10.37,2013-04-22 15:09:00,
2013-04-22 11:14:00,51.0,40.8,30.38,North,355,5.0,5.8,68,0.00,CLR,,0.00,WeatherDisplay:10.37,2013-04-22 15:14:00,
2013-04-22 11:19:00,51.5,38.5,30.37,North,355,0.3,4.6,61,0.00,CLR,,0.00,WeatherDisplay:10.37,2013-04-22 15:19:00,
2013-04-22 11:24:00,51.8,38.3,30.37,North,355,3.8,5.8,60,0.00,CLR,,0.00,WeatherDisplay:10.37,2013-04-22 15:24:00,
2013-04-22 11:29:00,52.1,41.1,30.37,ENE,73,3.6,5.8,66,0.00,CLR,,0.00,WeatherDisplay:10.37,2013-04-22 15:29:00,
2013-04-22 11:34:00,52.4,38.9,30.36,ENE,69,3.7,4.6,60,0.00,CLR,,0.00,WeatherDisplay:10.37,2013-04-22 15:34:00,
2013-04-22 11:39:00,52.2,37.4,30.36,ESE,107,3.1,5.8,57,0.00,CLR,,0.00,WeatherDisplay:10.37,2013-04-22 15:39:00,
2013-04-22 11:44:00,52.7,37.9,30.36,NNW,339,2.1,4.6,57,0.00,CLR,,0.00,WeatherDisplay:10.37,2013-04-22 15:44:00,
2013-04-22 11:49:00,53.8,40.7,30.36,ENE,69,3.5,5.8,61,0.00,CLR,,0.00,WeatherDisplay:10.37,2013-04-22 15:49:00,
2013-04-22 11:55:00,54.1,42.2,30.36,ENE,73,3.5,3.5,64,0.00,CLR,,0.00,WeatherDisplay:10.37,2013-04-22 15:55:00,
2013-04-22 12:00:00,54.1,42.2,30.36,ENE,62,3.5,3.5,64,0.00,CLR,,0.00,WeatherDisplay:10.37,2013-04-22 16:00:00,
2013-04-22 12:05:00,54.7,38.8,30.35,ENE,73,2.4,5.8,55,0.00,CLR,,0.00,WeatherDisplay:10.37,2013-04-22 16:05:00,
2013-04-22 12:10:00,54.1,38.7,30.35,SW,230,0.7,2.4,56,0.00,CLR,,0.00,WeatherDisplay:10.37,2013-04-22 16:10:00,
2013-04-22 12:15:00,54.7,43.2,30.35,NNW,346,0.5,2.3,65,0.00,CLR,,0.00,WeatherDisplay:10.37,2013-04-22 16:15:00,
2013-04-22 12:20:00,56.0,39.6,30.34,NE,46,3.8,6.1,54,0.00,CLR,,0.00,WeatherDisplay:10.37,2013-04-22 16:20:00,
2013-04-22 12:25:00,56.4,40.4,30.34,NE,51,3.9,4.6,55,0.00,CLR,,0.00,WeatherDisplay:10.37,2013-04-22 16:25:00,
2013-04-22 12:30:00,56.2,41.6,30.35,NE,44,3.9,8.1,58,0.00,CLR,,0.00,WeatherDisplay:10.37,2013-04-22 16:30:00,
2013-04-22 12:35:00,56.3,40.3,30.34,ENE,61,4.9,8.5,55,0.00,CLR,,0.00,WeatherDisplay:10.37,2013-04-22 16:35:00,
2013-04-22 12:40:00,55.9,38.5,30.34,North,11,1.0,3.5,52,0.00,CLR,,0.00,WeatherDisplay:10.37,2013-04-22 16:40:00,
2013-04-22 12:45:00,56.3,41.7,30.34,NE,43,4.8,9.2,58,0.00,CLR,,0.00,WeatherDisplay:10.37,2013-04-22 16:45:00,
2013-04-22 12:50:00,57.0,41.4,30.33,NNE,17,4.5,9.2,56,0.00,CLR,,0.00,WeatherDisplay:10.37,2013-04-22 16:50:00,
2013-04-22 12:55:00,57.3,41.3,30.33,East,93,4.5,5.8,55,0.00,CLR,,0.00,WeatherDisplay:10.37,2013-04-22 16:55:00,
2013-04-22 13:00:00,57.1,37.6,30.33,NW,307,4.1,5.8,48,0.00,CLR,,0.00,WeatherDisplay:10.37,2013-04-22 17:00:00,
2013-04-22 13:05:00,57.6,42.5,30.32,ENE,69,3.0,12.2,57,0.00,CLR,,0.00,WeatherDisplay:10.37,2013-04-22 17:05:00,
2013-04-22 13:10:00,57.9,37.8,30.32,NE,47,0.6,4.6,47,0.00,CLR,,0.00,WeatherDisplay:10.37,2013-04-22 17:10:00,
2013-04-22 13:15:00,58.2,40.6,30.32,ENE,69,0.8,2.4,52,0.00,CLR,,0.00,WeatherDisplay:10.37,2013-04-22 17:15:00,
2013-04-22 13:20:00,58.6,40.0,30.31,ENE,72,0.5,1.2,50,0.00,CLR,,0.00,WeatherDisplay:10.37,2013-04-22 17:20:00,
2013-04-22 13:25:00,58.4,39.8,30.31,NE,34,9.0,11.5,50,0.00,CLR,,0.00,WeatherDisplay:10.37,2013-04-22 17:25:00,
2013-04-22 15:26:00,62.7,39.9,30.26,NE,54,10.0,15.0,43,0.00,CLR,,0.00,WeatherDisplay:10.37,2013-04-22 19:26:00,
2013-04-22 15:31:00,63.6,40.7,30.26,NE,41,5.6,11.5,43,0.00,CLR,,0.00,WeatherDisplay:10.37,2013-04-22 19:31:00,
2013-04-22 15:36:00,63.1,40.2,30.25,East,94,7.3,8.1,43,0.00,CLR,,0.00,WeatherDisplay:10.37,2013-04-22 19:36:00,
2013-04-22 15:41:00,63.2,40.9,30.25,NE,37,7.0,7.0,44,0.00,CLR,,0.00,WeatherDisplay:10.37,2013-04-22 19:41:00,
2013-04-22 15:46:00,63.4,39.9,30.25,NE,39,3.3,4.6,42,0.00,CLR,,0.00,WeatherDisplay:10.37,2013-04-22 19:46:00,
2013-04-22 15:51:00,63.3,39.8,30.25,ENE,77,6.5,9.8,42,0.00,CLR,,0.00,WeatherDisplay:10.37,2013-04-22 19:51:00,
2013-04-22 15:56:00,62.4,39.6,30.25,ENE,60,8.7,9.8,43,0.00,CLR,,0.00,WeatherDisplay:10.37,2013-04-22 19:56:00,
2013-04-22 16:01:00,63.3,39.8,30.25,NE,54,7.3,13.4,42,0.00,CLR,,0.00,WeatherDisplay:10.37,2013-04-22 20:01:00,
2013-04-22 16:06:00,63.4,41.1,30.25,North,355,6.6,11.5,44,0.00,CLR,,0.00,WeatherDisplay:10.37,2013-04-22 20:06:00,
2013-04-22 16:11:00,62.7,37.4,30.25,ENE,60,4.3,5.8,39,0.00,CLR,,0.00,WeatherDisplay:10.37,2013-04-22 20:11:00,
2013-04-22 16:16:00,63.4,39.3,30.25,NE,54,7.1,11.5,41,0.00,CLR,,0.00,WeatherDisplay:10.37,2013-04-22 20:16:00,
2013-04-22 16:21:00,63.7,38.3,30.24,North,8,2.8,6.9,39,0.00,CLR,,0.00,WeatherDisplay:10.37,2013-04-22 20:21:00,
2013-04-22 16:26:00,64.4,40.8,30.24,NE,55,3.9,4.6,42,0.00,CLR,,0.00,WeatherDisplay:10.37,2013-04-22 20:26:00,
2013-04-22 16:31:00,64.7,38.5,30.24,North,355,9.1,12.7,38,0.00,CLR,,0.00,WeatherDisplay:10.37,2013-04-22 20:31:00,
2013-04-22 16:36:00,64.8,39.9,30.23,North,355,8.7,9.2,40,0.00,CLR,,0.00,WeatherDisplay:10.37,2013-04-22 20:36:00,
2013-04-22 16:41:00,64.6,38.4,30.23,NE,40,6.8,9.8,38,0.00,CLR,,0.00,WeatherDisplay:10.37,2013-04-22 20:41:00,
2013-04-22 16:46:00,63.6,36.8,30.23,NE,46,7.5,13.8,37,0.00,CLR,,0.00,WeatherDisplay:10.37,2013-04-22 20:46:00,
2013-04-22 16:51:00,64.0,37.2,30.22,North,355,2.1,8.1,37,0.00,CLR,,0.00,WeatherDisplay:10.37,2013-04-22 20:51:00,
2013-04-22 16:56:00,64.1,38.0,30.22,North,355,3.2,8.1,38,0.00,CLR,,0.00,WeatherDisplay:10.37,2013-04-22 20:56:00,
2013-04-22 17:01:00,63.1,35.7,30.22,North,355,5.8,8.5,36,0.00,CLR,,0.00,WeatherDisplay:10.37,2013-04-22 21:01:00,
2013-04-22 17:06:00,63.2,35.8,30.22,North,355,1.5,11.5,36,0.00,CLR,,0.00,WeatherDisplay:10.37,2013-04-22 21:06:00,
2013-04-22 17:11:00,63.2,38.5,30.22,NW,310,0.1,2.3,40,0.00,CLR,,0.00,WeatherDisplay:10.37,2013-04-22 21:11:00,
2013-04-22 17:16:00,64.2,39.4,30.22,North,355,0.4,1.1,40,0.00,CLR,,0.00,WeatherDisplay:10.37,2013-04-22 21:16:00,
2013-04-22 17:21:00,63.9,39.7,30.22,NE,56,4.3,8.5,41,0.00,CLR,,0.00,WeatherDisplay:10.37,2013-04-22 21:21:00,
2013-04-22 17:26:00,63.2,37.2,30.22,NNW,346,0.6,11.5,38,0.00,CLR,,0.00,WeatherDisplay:10.37,2013-04-22 21:26:00,
2013-04-22 17:31:00,63.2,35.1,30.22,NNW,331,0.3,1.1,35,0.00,CLR,,0.00,WeatherDisplay:10.37,2013-04-22 21:31:00,
2013-04-22 17:36:00,63.8,37.0,30.22,NNE,21,0.8,2.3,37,0.00,CLR,,0.00,WeatherDisplay:10.37,2013-04-22 21:36:00,
2013-04-22 17:41:00,63.1,37.1,30.21,NW,325,2.9,2.9,38,0.00,CLR,,0.00,WeatherDisplay:10.37,2013-04-22 21:41:00,
2013-04-22 17:46:00,62.8,35.4,30.21,NNW,335,0.1,1.2,36,0.00,CLR,,0.00,WeatherDisplay:10.37,2013-04-22 21:46:00,
2013-04-22 17:51:00,62.5,37.8,30.21,NE,38,2.1,6.1,40,0.00,CLR,,0.00,WeatherDisplay:10.37,2013-04-22 21:51:00,
2013-04-22 17:56:00,62.1,36.8,30.21,NNE,33,1.2,2.3,39,0.00,CLR,,0.00,WeatherDisplay:10.37,2013-04-22 21:56:00,
2013-04-22 18:01:00,61.7,34.5,30.21,ENE,58,2.8,5.8,36,0.00,CLR,,0.00,WeatherDisplay:10.37,2013-04-22 22:01:00,
2013-04-22 18:06:00,61.1,35.3,30.20,NW,318,6.3,8.1,38,0.00,CLR,,0.00,WeatherDisplay:10.37,2013-04-22 22:06:00,
2013-04-22 18:12:00,60.7,36.2,30.21,NNE,25,0.7,1.2,40,0.00,CLR,,0.00,WeatherDisplay:10.37,2013-04-22 22:12:00,
2013-04-22 18:17:00,60.2,34.5,30.21,North,9,4.3,5.8,38,0.00,CLR,,0.00,WeatherDisplay:10.37,2013-04-22 22:17:00,
2013-04-22 18:22:00,60.0,35.0,30.20,NW,322,1.3,4.6,39,0.00,CLR,,0.00,WeatherDisplay:10.37,2013-04-22 22:22:00,
2013-04-22 18:26:00,59.7,37.2,30.20,NW,321,0.0,0.0,43,0.00,CLR,,0.00,WeatherDisplay:10.37,2013-04-22 22:26:00,
2013-04-22 18:32:00,59.4,36.9,30.20,ENE,66,2.3,3.5,43,0.00,CLR,,0.00,WeatherDisplay:10.37,2013-04-22 22:32:00,
2013-04-22 18:37:00,59.1,36.6,30.20,NNE,23,0.1,1.1,43,0.00,CLR,,0.00,WeatherDisplay:10.37,2013-04-22 22:37:00,
2013-04-22 18:42:00,58.8,36.3,30.20,North,360,0.0,0.0,43,0.00,CLR,,0.00,WeatherDisplay:10.37,2013-04-22 22:42:00,
2013-04-22 18:47:00,58.4,36.6,30.20,NNW,345,0.0,0.0,44,0.00,CLR,,0.00,WeatherDisplay:10.37,2013-04-22 22:47:00,
2013-04-22 18:52:00,58.2,36.9,30.20,NNW,345,0.0,0.0,45,0.00,CLR,,0.00,WeatherDisplay:10.37,2013-04-22 22:52:00,
2013-04-22 18:57:00,57.9,37.2,30.20,NNW,345,0.0,0.0,46,0.00,CLR,,0.00,WeatherDisplay:10.37,2013-04-22 22:57:00,
2013-04-22 19:02:00,57.7,36.5,30.20,NNE,27,0.0,0.0,45,0.00,CLR,,0.00,WeatherDisplay:10.37,2013-04-22 23:02:00,
2013-04-22 19:07:00,57.3,36.1,30.22,NNE,27,0.0,0.0,45,0.00,CLR,,0.00,WeatherDisplay:10.37,2013-04-22 23:07:00,
2013-04-22 19:12:00,57.0,37.0,30.22,NNE,20,2.8,6.1,47,0.00,CLR,,0.00,WeatherDisplay:10.37,2013-04-22 23:12:00,
2013-04-22 19:17:00,56.9,36.3,30.22,NNE,21,0.0,0.0,46,0.00,CLR,,0.00,WeatherDisplay:10.37,2013-04-22 23:17:00,
2013-04-22 19:22:00,56.7,35.6,30.22,NE,50,2.3,2.3,45,0.00,CLR,,0.00,WeatherDisplay:10.37,2013-04-22 23:22:00,
2013-04-22 19:27:00,56.4,36.9,30.22,North,4,0.4,1.2,48,0.00,CLR,,0.00,WeatherDisplay:10.37,2013-04-22 23:27:00,
2013-04-22 19:32:00,56.0,37.1,30.22,North,4,0.0,0.0,49,0.00,CLR,,0.00,WeatherDisplay:10.37,2013-04-22 23:32:00,
2013-04-22 19:37:00,55.4,39.5,30.22,North,4,0.0,0.0,55,0.00,CLR,,0.00,WeatherDisplay:10.37,2013-04-22 23:37:00,
2013-04-22 19:42:00,54.7,38.8,30.22,North,4,0.0,1.1,55,0.00,CLR,,0.00,WeatherDisplay:10.37,2013-04-22 23:42:00,
2013-04-22 19:47:00,54.2,38.8,30.22,North,4,0.0,0.0,56,0.00,CLR,,0.00,WeatherDisplay:10.37,2013-04-22 23:47:00,
2013-04-22 19:52:00,53.7,38.4,30.23,North,4,0.0,0.0,56,0.00,CLR,,0.00,WeatherDisplay:10.37,2013-04-22 23:52:00,
2013-04-22 19:57:00,53.2,38.8,30.22,North,4,0.0,1.1,58,0.00,CLR,,0.00,WeatherDisplay:10.37,2013-04-22 23:57:00,
2013-04-22 20:02:00,53.0,39.9,30.22,North,4,0.0,0.0,61,0.00,CLR,,0.00,WeatherDisplay:10.37,2013-04-23 00:02:00,
2013-04-22 20:07:00,52.4,38.9,30.23,North,4,0.0,0.0,60,0.00,CLR,,0.00,WeatherDisplay:10.37,2013-04-23 00:07:00,
2013-04-22 20:12:00,52.0,39.4,30.23,North,4,0.0,0.0,62,0.00,CLR,,0.00,WeatherDisplay:10.37,2013-04-23 00:12:00,
2013-04-22 20:17:00,51.4,39.6,30.23,North,4,0.0,0.0,64,0.00,CLR,,0.00,WeatherDisplay:10.37,2013-04-23 00:17:00,
2013-04-22 20:22:00,50.9,39.5,30.23,North,4,0.0,0.0,65,0.00,CLR,,0.00,WeatherDisplay:10.37,2013-04-23 00:22:00,
2013-04-22 20:27:00,50.5,39.6,30.23,North,4,0.0,1.1,66,0.00,CLR,,0.00,WeatherDisplay:10.37,2013-04-23 00:27:00,
2013-04-22 20:32:00,50.1,38.8,30.23,North,4,0.0,1.2,65,0.00,CLR,,0.00,WeatherDisplay:10.37,2013-04-23 00:32:00,
2013-04-22 20:37:00,49.7,38.0,30.24,North,4,0.0,0.0,64,0.00,CLR,,0.00,WeatherDisplay:10.37,2013-04-23 00:37:00,
2013-04-22 20:42:00,49.5,39.4,30.24,North,4,0.0,0.0,68,0.00,CLR,,0.00,WeatherDisplay:10.37,2013-04-23 00:42:00,
2013-04-22 20:47:00,49.1,39.7,30.24,North,4,0.0,0.0,70,0.00,CLR,,0.00,WeatherDisplay:10.37,2013-04-23 00:47:00,
2013-04-22 20:52:00,48.6,38.9,30.25,North,4,0.0,0.0,69,0.00,CLR,,0.00,WeatherDisplay:10.37,2013-04-23 00:52:00,
2013-04-22 20:57:00,48.3,39.0,30.25,North,4,0.0,1.2,70,0.00,CLR,,0.00,WeatherDisplay:10.37,2013-04-23 00:57:00,
2013-04-22 21:02:00,48.0,38.7,30.24,North,4,0.0,1.1,70,0.00,CLR,,0.00,WeatherDisplay:10.37,2013-04-23 01:02:00,
2013-04-22 21:07:00,48.0,38.7,30.24,North,4,0.0,1.1,70,0.00,CLR,,0.00,WeatherDisplay:10.37,2013-04-23 01:07:00,
2013-04-22 21:12:00,47.6,39.0,30.25,North,4,0.0,0.0,72,0.00,CLR,,0.00,WeatherDisplay:10.37,2013-04-23 01:12:00,
2013-04-22 21:17:00,47.4,38.5,30.25,North,4,0.0,0.0,71,0.00,CLR,,0.00,WeatherDisplay:10.37,2013-04-23 01:17:00,
2013-04-22 21:22:00,47.2,38.6,30.25,North,4,0.0,0.0,72,0.00,CLR,,0.00,WeatherDisplay:10.37,2013-04-23 01:22:00,
2013-04-22 21:27:00,47.0,38.1,30.25,North,4,0.0,0.0,71,0.00,CLR,,0.00,WeatherDisplay:10.37,2013-04-23 01:27:00,
2013-04-22 21:32:00,46.9,38.7,30.25,North,4,0.0,0.0,73,0.00,CLR,,0.00,WeatherDisplay:10.37,2013-04-23 01:32:00,
2013-04-22 21:37:00,46.7,38.9,30.26,North,4,0.0,0.0,74,0.00,CLR,,0.00,WeatherDisplay:10.37,2013-04-23 01:37:00,
2013-04-22 21:42:00,46.4,38.6,30.26,North,4,0.0,0.0,74,0.00,CLR,,0.00,WeatherDisplay:10.37,2013-04-23 01:42:00,
2013-04-22 21:47:00,46.3,38.8,30.26,North,4,0.0,0.0,75,0.00,CLR,,0.00,WeatherDisplay:10.37,2013-04-23 01:47:00,
2013-04-22 21:57:00,46.1,38.3,30.25,North,4,0.0,1.2,74,0.00,CLR,,0.00,WeatherDisplay:10.37,2013-04-23 01:57:00,
2013-04-22 22:02:00,46.1,37.9,30.26,North,4,0.0,0.0,73,0.00,CLR,,0.00,WeatherDisplay:10.37,2013-04-23 02:02:00,
2013-04-22 22:07:00,46.0,37.5,30.27,North,4,0.0,0.0,72,0.00,CLR,,0.00,WeatherDisplay:10.37,2013-04-23 02:07:00,
2013-04-22 22:12:00,45.8,38.3,30.27,North,4,0.1,1.1,75,0.00,CLR,,0.00,WeatherDisplay:10.37,2013-04-23 02:12:00,
2013-04-22 22:17:00,45.7,38.2,30.27,North,4,0.1,0.0,75,0.00,CLR,,0.00,WeatherDisplay:10.37,2013-04-23 02:17:00,
2013-04-22 22:22:00,45.6,38.1,30.28,North,4,0.0,0.0,75,0.00,CLR,,0.00,WeatherDisplay:10.37,2013-04-23 02:22:00,
2013-04-22 22:27:00,45.4,37.9,30.28,North,4,0.0,0.0,75,0.00,CLR,,0.00,WeatherDisplay:10.37,2013-04-23 02:27:00,
2013-04-22 22:32:00,45.2,38.1,30.28,North,4,0.0,0.0,76,0.00,CLR,,0.00,WeatherDisplay:10.37,2013-04-23 02:32:00,
2013-04-22 22:37:00,45.1,38.0,30.28,North,4,0.0,0.0,76,0.00,CLR,,0.00,WeatherDisplay:10.37,2013-04-23 02:37:00,
2013-04-22 22:43:00,44.8,37.4,30.28,NW,308,1.0,2.3,75,0.00,CLR,,0.00,WeatherDisplay:10.37,2013-04-23 02:43:00,
2013-04-22 22:48:00,44.6,37.8,30.28,NW,308,0.0,1.1,77,0.00,CLR,,0.00,WeatherDisplay:10.37,2013-04-23 02:48:00,
2013-04-22 22:53:00,44.4,37.3,30.28,NW,308,0.0,0.0,76,0.00,CLR,,0.00,WeatherDisplay:10.37,2013-04-23 02:53:00,
2013-04-22 22:58:00,44.4,36.6,30.28,NW,308,0.4,2.4,74,0.00,CLR,,0.00,WeatherDisplay:10.37,2013-04-23 02:58:00,
2013-04-22 23:03:00,44.6,36.5,30.29,NW,312,0.0,0.0,73,0.00,CLR,,0.00,WeatherDisplay:10.37,2013-04-23 03:03:00,
2013-04-22 23:08:00,44.4,36.6,30.29,NW,310,2.8,3.7,74,0.00,CLR,,0.00,WeatherDisplay:10.37,2013-04-23 03:08:00,
2013-04-22 23:13:00,44.2,36.1,30.29,NW,313,2.8,3.5,73,0.00,CLR,,0.00,WeatherDisplay:10.37,2013-04-23 03:13:00,
2013-04-22 23:18:00,44.3,36.5,30.29,NW,313,0.0,1.1,74,0.00,CLR,,0.00,WeatherDisplay:10.37,2013-04-23 03:18:00,
2013-04-22 23:23:00,44.1,36.0,30.29,NW,313,0.0,1.2,73,0.00,CLR,,0.00,WeatherDisplay:10.37,2013-04-23 03:23:00,
2013-04-22 23:28:00,43.9,35.5,30.29,NW,312,1.2,2.3,72,0.00,CLR,,0.00,WeatherDisplay:10.37,2013-04-23 03:28:00,
2013-04-22 23:33:00,43.6,35.5,30.29,NW,312,0.0,0.0,73,0.00,CLR,,0.00,WeatherDisplay:10.37,2013-04-23 03:33:00,
2013-04-22 23:38:00,43.6,35.9,30.29,NW,312,2.3,3.5,74,0.00,CLR,,0.00,WeatherDisplay:10.37,2013-04-23 03:38:00,
2013-04-22 23:43:00,43.5,35.8,30.29,NW,312,0.3,1.1,74,0.00,CLR,,0.00,WeatherDisplay:10.37,2013-04-23 03:43:00,
2013-04-22 23:48:00,43.4,35.0,30.29,NW,312,0.0,0.0,72,0.00,CLR,,0.00,WeatherDisplay:10.37,2013-04-23 03:48:00,
2013-04-22 23:53:00,43.3,35.2,30.29,NW,312,0.0,0.0,73,0.00,CLR,,0.00,WeatherDisplay:10.37,2013-04-23 03:53:00,
2013-04-22 23:58:00,43.3,35.9,30.29,NW,312,0.0,1.1,75,0.00,CLR,,0.00,WeatherDisplay:10.37,2013-04-23 03:58:00,